createdAt,value
2023-03-15T00:01:24.198Z,1.33
2023-03-15T00:05:26.913Z,1.70
2023-03-15T00:09:29.848Z,1.53
2023-03-15T00:13:32.951Z,1.30
2023-03-15T00:17:37.254Z,1.47
2023-03-15T00:21:43.124Z,1.30
2023-03-15T00:25:46.233Z,1.37
2023-03-15T00:29:48.998Z,1.10
2023-03-15T00:33:53.803Z,1.50
2023-03-15T00:37:57.400Z,1.50
2023-03-15T00:42:00.388Z,1.50
2023-03-15T00:46:03.427Z,1.53
2023-03-15T00:50:08.684Z,1.70
2023-03-15T00:54:13.720Z,1.70
2023-03-15T00:58:16.646Z,1.90
2023-03-15T01:02:22.033Z,2.20
2023-03-15T01:06:28.062Z,1.70
2023-03-15T01:10:30.735Z,1.60
2023-03-15T01:14:35.323Z,1.40
2023-03-15T01:18:38.303Z,1.00
2023-03-15T01:22:42.607Z,0.70
2023-03-15T01:26:45.280Z,0.77
2023-03-15T01:30:51.435Z,0.70
2023-03-15T01:34:54.105Z,1.00
2023-03-15T01:38:58.208Z,0.80
2023-03-15T01:43:16.489Z,0.70
2023-03-15T01:47:19.708Z,0.80
2023-03-15T01:51:24.760Z,0.90
2023-03-15T01:55:33.705Z,0.90
2023-03-15T01:59:37.973Z,1.10
2023-03-15T02:03:46.538Z,1.30
2023-03-15T02:07:50.836Z,1.23
2023-03-15T02:11:55.123Z,1.27
2023-03-15T02:15:58.215Z,1.00
2023-03-15T02:20:06.730Z,1.77
2023-03-15T02:24:25.435Z,2.60
2023-03-15T02:28:30.531Z,3.23
2023-03-15T02:32:33.407Z,3.47
2023-03-15T02:36:38.107Z,3.30
2023-03-15T02:40:40.795Z,3.00
2023-03-15T02:44:46.461Z,2.63
2023-03-15T02:48:49.276Z,2.97
2023-03-15T02:52:52.563Z,2.63
2023-03-15T02:56:55.537Z,2.80
2023-03-15T03:00:59.797Z,2.57
2023-03-15T03:05:02.833Z,2.30
2023-03-15T03:09:05.865Z,2.33
2023-03-15T03:13:08.512Z,2.47
2023-03-15T03:17:12.515Z,2.20
2023-03-15T03:21:15.762Z,2.00
2023-03-15T03:25:18.737Z,2.27
2023-03-15T03:29:21.406Z,2.80
2023-03-15T03:33:25.542Z,2.90
2023-03-15T03:37:30.889Z,3.13
2023-03-15T03:41:33.845Z,3.40
2023-03-15T03:45:39.411Z,3.60
2023-03-15T03:49:43.893Z,2.90
2023-03-15T03:53:47.139Z,3.23
2023-03-15T03:57:49.856Z,3.73
2023-03-15T04:01:52.542Z,3.70
2023-03-15T04:05:57.451Z,3.57
2023-03-15T04:10:02.361Z,3.83
2023-03-15T04:14:05.041Z,3.97
2023-03-15T04:18:07.706Z,3.57
2023-03-15T04:22:15.249Z,4.10
2023-03-15T04:26:17.891Z,4.30
2023-03-15T04:30:26.976Z,4.20
2023-03-15T04:34:30.284Z,4.10
2023-03-15T04:38:35.542Z,4.20
2023-03-15T04:42:40.037Z,4.40
2023-03-15T04:46:42.798Z,4.17
2023-03-15T04:50:45.802Z,4.23
2023-03-15T04:54:50.115Z,4.90
2023-03-15T04:58:52.797Z,4.50
2023-03-15T05:02:55.679Z,4.53
2023-03-15T05:06:58.415Z,4.63
2023-03-15T05:11:02.625Z,5.10
2023-03-15T05:15:06.058Z,4.83
2023-03-15T05:19:11.982Z,4.43
2023-03-15T05:23:14.764Z,4.80
2023-03-15T05:27:21.176Z,5.60
2023-03-15T05:31:23.877Z,5.17
2023-03-15T05:35:26.867Z,5.00
2023-03-15T05:39:29.901Z,4.50
2023-03-15T05:43:35.668Z,4.33
2023-03-15T05:47:38.345Z,4.10
2023-03-15T05:51:41.655Z,4.20
2023-03-15T05:55:44.379Z,4.27
2023-03-15T05:59:49.293Z,4.70
2023-03-15T06:03:52.282Z,4.10
2023-03-15T06:07:55.216Z,3.63
2023-03-15T06:11:59.084Z,3.40
2023-03-15T06:16:03.104Z,3.73
2023-03-15T06:20:07.488Z,3.83
2023-03-15T06:24:10.342Z,3.60
2023-03-15T06:28:12.994Z,3.50
2023-03-15T06:32:17.017Z,4.03
2023-03-15T06:36:20.168Z,3.60
2023-03-15T06:40:22.824Z,3.70
2023-03-15T06:44:25.483Z,3.60
2023-03-15T06:48:29.852Z,3.70
2023-03-15T06:52:32.526Z,3.20
2023-03-15T06:56:37.231Z,3.33
2023-03-15T07:00:39.889Z,3.63
2023-03-15T07:04:45.133Z,3.70
2023-03-15T07:08:47.827Z,4.13
2023-03-15T07:12:50.762Z,3.90
2023-03-15T07:16:53.410Z,4.30
2023-03-15T07:21:00.952Z,3.97
2023-03-15T07:25:03.915Z,3.53
2023-03-15T07:29:06.750Z,3.93
2023-03-15T07:33:11.568Z,3.70
2023-03-15T07:37:17.805Z,4.20
2023-03-15T07:41:20.512Z,4.07
2023-03-15T07:45:25.710Z,3.17
2023-03-15T07:49:28.483Z,3.13
2023-03-15T07:53:32.545Z,2.77
2023-03-15T07:57:35.276Z,3.20
2023-03-15T08:01:38.242Z,3.07
2023-03-15T08:05:41.043Z,2.80
2023-03-15T08:09:46.711Z,2.50
2023-03-15T08:13:51.033Z,3.00
2023-03-15T08:17:53.734Z,2.50
2023-03-15T08:21:56.829Z,2.87
2023-03-15T08:26:01.404Z,2.90
2023-03-15T08:30:05.636Z,2.77
2023-03-15T08:34:08.379Z,2.90
2023-03-15T08:38:11.057Z,2.60
2023-03-15T08:42:15.513Z,3.40
2023-03-15T08:46:21.946Z,2.20
2023-03-15T08:50:24.940Z,2.43
2023-03-15T08:54:28.180Z,2.47
2023-03-15T08:58:32.284Z,1.90
2023-03-15T09:02:35.022Z,2.40
2023-03-15T09:06:37.950Z,2.10
2023-03-15T09:10:40.802Z,2.00
2023-03-15T09:14:45.033Z,2.40
2023-03-15T09:18:48.204Z,2.00
2023-03-15T09:22:53.352Z,2.40
2023-03-15T09:26:56.031Z,1.97
2023-03-15T09:31:00.344Z,2.00
2023-03-15T09:35:04.602Z,2.27
2023-03-15T09:39:08.412Z,2.20
2023-03-15T09:43:36.033Z,2.60
2023-03-15T09:47:46.764Z,2.40
2023-03-15T09:51:52.475Z,2.90
2023-03-15T09:55:55.191Z,2.20
2023-03-15T09:59:58.109Z,1.50
2023-03-15T10:04:06.467Z,2.30
2023-03-15T10:08:13.383Z,1.93
2023-03-15T10:12:17.772Z,2.97
2023-03-15T10:16:30.559Z,3.10
2023-03-15T10:20:37.316Z,2.17
2023-03-15T10:24:44.394Z,2.30
2023-03-15T10:28:47.122Z,2.13
2023-03-15T10:32:54.056Z,4.27
2023-03-15T10:36:58.699Z,3.67
2023-03-15T10:41:01.888Z,3.30
2023-03-15T10:45:16.320Z,3.57
2023-03-15T10:49:19.026Z,2.00
2023-03-15T10:53:25.640Z,2.60
2023-03-15T10:57:30.058Z,2.57
2023-03-15T11:01:35.079Z,2.57
2023-03-15T11:05:44.344Z,2.35
2023-03-15T11:09:55.602Z,2.30
2023-03-15T11:14:01.582Z,2.27
2023-03-15T11:18:04.440Z,2.47
2023-03-15T11:22:09.646Z,2.30
2023-03-15T11:26:31.445Z,2.07
2023-03-15T11:30:35.178Z,1.80
2023-03-15T11:34:41.794Z,2.07
2023-03-15T11:38:45.897Z,2.50
2023-03-15T11:42:55.836Z,1.90
2023-03-15T11:47:00.444Z,1.70
2023-03-15T11:51:03.461Z,1.63
2023-03-15T11:55:06.848Z,1.60
2023-03-15T11:59:13.118Z,1.60
2023-03-15T12:03:35.855Z,1.90
2023-03-15T12:07:39.935Z,1.60
2023-03-15T12:11:43.236Z,1.85
2023-03-15T12:15:49.145Z,1.90
2023-03-15T12:19:59.161Z,2.30
2023-03-15T12:24:05.249Z,2.37
2023-03-15T12:28:09.986Z,2.13
2023-03-15T12:32:16.038Z,2.60
2023-03-15T12:36:30.622Z,2.00
2023-03-15T12:40:42.083Z,2.00
2023-03-15T12:44:45.206Z,1.90
2023-03-15T12:49:10.713Z,2.50
2023-03-15T12:53:17.679Z,1.63
2023-03-15T12:57:22.344Z,2.90
2023-03-15T13:01:26.608Z,1.90
2023-03-15T13:05:36.201Z,1.80
2023-03-15T13:09:53.767Z,1.63
2023-03-15T13:14:09.149Z,3.23
2023-03-15T13:18:17.784Z,1.77
2023-03-15T13:22:26.903Z,1.60
2023-03-15T13:26:51.214Z,1.30
2023-03-15T13:30:55.470Z,1.70
2023-03-15T13:34:58.361Z,1.97
2023-03-15T13:39:11.765Z,2.07
2023-03-15T13:43:14.476Z,2.60
2023-03-15T13:47:21.930Z,1.30
2023-03-15T13:51:26.403Z,5.43
2023-03-15T13:55:34.191Z,1.47
2023-03-15T13:59:42.803Z,1.20
2023-03-15T14:03:49.702Z,1.50
2023-03-15T14:07:57.929Z,1.57
2023-03-15T14:12:07.480Z,2.20
2023-03-15T14:16:18.143Z,1.80
2023-03-15T14:20:21.225Z,1.30
2023-03-15T14:24:28.428Z,1.60
2023-03-15T14:28:35.767Z,1.80
2023-03-15T14:32:39.896Z,1.40
2023-03-15T14:36:44.325Z,1.50
2023-03-15T14:40:47.328Z,2.00
2023-03-15T14:44:51.362Z,1.50
2023-03-15T14:48:54.071Z,1.47
2023-03-15T14:52:57.743Z,1.20
2023-03-15T14:57:00.813Z,1.47
2023-03-15T15:01:05.479Z,1.23
2023-03-15T15:05:19.937Z,2.00
2023-03-15T15:09:25.233Z,1.70
2023-03-15T15:13:30.379Z,1.37
2023-03-15T15:17:34.644Z,3.00
2023-03-15T15:21:38.134Z,3.50
2023-03-15T15:25:41.035Z,1.57
2023-03-15T15:29:44.872Z,2.00
2023-03-15T15:33:48.929Z,1.50
2023-03-15T15:37:53.087Z,1.20
2023-03-15T15:41:55.914Z,2.20
2023-03-15T15:45:58.639Z,2.10
2023-03-15T15:50:02.915Z,1.60
2023-03-15T15:54:06.538Z,1.77
2023-03-15T15:58:11.978Z,5.00
2023-03-15T16:02:22.001Z,5.90
2023-03-15T16:06:26.544Z,2.23
2023-03-15T16:10:30.564Z,2.03
2023-03-15T16:14:33.194Z,1.80
2023-03-15T16:18:35.898Z,2.10
2023-03-15T16:22:41.719Z,1.10
2023-03-15T16:26:48.378Z,1.10
2023-03-15T16:30:51.170Z,1.30
2023-03-15T16:34:54.963Z,1.10
2023-03-15T16:39:02.722Z,1.97
2023-03-15T16:43:06.299Z,1.20
2023-03-15T16:47:09.446Z,1.40
2023-03-15T16:51:14.677Z,1.70
2023-03-15T16:55:21.412Z,2.20
2023-03-15T16:59:27.666Z,1.40
2023-03-15T17:03:32.812Z,1.20
2023-03-15T17:07:39.533Z,5.40
2023-03-15T17:11:44.918Z,4.07
2023-03-15T17:15:47.648Z,1.87
2023-03-15T17:19:53.225Z,1.60
2023-03-15T17:23:56.027Z,3.87
2023-03-15T17:28:02.193Z,3.00
2023-03-15T17:32:05.250Z,2.10
2023-03-15T17:36:11.697Z,1.50
2023-03-15T17:40:21.594Z,1.30
2023-03-15T17:44:25.692Z,3.53
2023-03-15T17:48:28.362Z,3.10
2023-03-15T17:52:31.373Z,2.43
2023-03-15T17:56:34.031Z,3.07
2023-03-15T18:00:38.516Z,3.17
2023-03-15T18:04:41.470Z,3.70
2023-03-15T18:08:45.401Z,5.10
2023-03-15T18:12:49.848Z,3.80
2023-03-15T18:16:54.203Z,4.50
2023-03-15T18:20:59.474Z,4.10
2023-03-15T18:25:04.821Z,3.90
2023-03-15T18:29:08.345Z,4.43
2023-03-15T18:33:15.915Z,4.20
2023-03-15T18:37:18.713Z,2.70
2023-03-15T18:41:23.549Z,3.20
2023-03-15T18:45:28.509Z,2.70
2023-03-15T18:49:32.930Z,2.50
2023-03-15T18:53:35.623Z,3.00
2023-03-15T18:57:41.328Z,4.57
2023-03-15T19:01:44.084Z,4.53
2023-03-15T19:05:49.441Z,5.77
2023-03-15T19:09:52.369Z,5.40
2023-03-15T19:13:55.375Z,7.83
2023-03-15T19:17:59.752Z,8.10
2023-03-15T19:22:04.326Z,13.87
2023-03-15T19:26:07.434Z,8.47
2023-03-15T19:30:14.393Z,70.37
2023-03-15T19:34:18.981Z,27.47
2023-03-15T19:38:45.801Z,14.07
2023-03-15T19:42:49.592Z,11.73
2023-03-15T19:46:52.337Z,11.03
2023-03-15T19:50:55.482Z,11.87
2023-03-15T19:55:00.863Z,9.40
2023-03-15T19:59:04.426Z,11.73
2023-03-15T20:03:07.125Z,11.00
2023-03-15T20:07:11.123Z,12.60
2023-03-15T20:11:20.143Z,10.97
2023-03-15T20:15:22.796Z,11.33
2023-03-15T20:19:25.484Z,6.97
2023-03-15T20:23:28.501Z,7.37
2023-03-15T20:27:34.165Z,7.30
2023-03-15T20:31:37.427Z,9.50
2023-03-15T20:35:41.016Z,13.63
2023-03-15T20:39:44.156Z,11.07
2023-03-15T20:43:49.383Z,9.37
2023-03-15T20:47:52.527Z,8.60
2023-03-15T20:51:55.166Z,8.00
2023-03-15T20:55:57.885Z,7.70
2023-03-15T21:00:02.216Z,6.37
2023-03-15T21:04:04.963Z,7.00
2023-03-15T21:08:08.020Z,7.27
2023-03-15T21:12:14.082Z,10.97
2023-03-15T21:16:18.465Z,11.80
2023-03-15T21:20:21.489Z,14.43
2023-03-15T21:24:24.350Z,8.57
2023-03-15T21:28:27.068Z,7.70
2023-03-15T21:32:31.231Z,7.40
2023-03-15T21:36:33.969Z,8.20
2023-03-15T21:40:36.627Z,10.50
2023-03-15T21:44:39.333Z,9.33
2023-03-15T21:48:45.375Z,10.57
2023-03-15T21:52:48.363Z,9.77
2023-03-15T21:56:52.973Z,8.90
2023-03-15T22:00:59.541Z,9.40
2023-03-15T22:05:03.778Z,7.97
2023-03-15T22:09:06.459Z,7.97
2023-03-15T22:13:09.108Z,7.93
2023-03-15T22:17:13.325Z,8.63
2023-03-15T22:21:17.423Z,8.73
2023-03-15T22:25:20.494Z,8.40
2023-03-15T22:29:23.423Z,9.30
2023-03-15T22:33:26.204Z,9.57
2023-03-15T22:37:30.287Z,8.70
2023-03-15T22:41:32.971Z,8.27
2023-03-15T22:45:35.658Z,8.93
2023-03-15T22:49:38.446Z,8.77
2023-03-15T22:53:42.950Z,8.00
2023-03-15T22:57:45.763Z,7.70
2023-03-15T23:01:48.510Z,8.67
2023-03-15T23:05:51.524Z,8.47
2023-03-15T23:09:55.958Z,8.67
2023-03-15T23:13:58.842Z,10.10
2023-03-15T23:18:01.840Z,9.43
2023-03-15T23:22:05.443Z,9.97
2023-03-15T23:26:09.973Z,9.43
2023-03-15T23:30:14.232Z,9.67
2023-03-15T23:34:16.929Z,8.83
2023-03-15T23:38:19.580Z,8.90
2023-03-15T23:42:25.906Z,9.00
2023-03-15T23:46:28.869Z,9.00
2023-03-15T23:50:31.795Z,8.80
2023-03-15T23:54:39.567Z,8.13
2023-03-15T23:58:43.863Z,8.83
